Time;durP1;ratioP1;P1;durP2;ratioP2;P2;SDS_P1;SDS_P2;PMS_P1;PMS_P2;Temp;Humidity;BMP_temperature;BMP_pressure;BME280_temperature;BME280_humidity;BME280_pressure;Samples;Min_cycle;Max_cycle;Signal;HPM_P1;HPM_P2
2022/10/17 00:02:08;;;;;;;23.65;13.40;;;;;;;;;;10301848;28;20045;-73
2022/10/17 00:07:09;;;;;;;25.38;12.70;;;;;;;;;;10307017;28;20022;-80
2022/10/17 00:12:09;;;;;;;22.13;12.45;;;;;;;;;;10302395;28;20026;-75
2022/10/17 00:17:09;;;;;;;14.55;8.77;;;;;;;;;;10302356;28;20027;-77
2022/10/17 00:22:10;;;;;;;14.38;7.63;;;;;;;;;;10300716;28;20029;-75
2022/10/17 00:27:10;;;;;;;13.18;6.30;;;;;;;;;;10301318;28;20026;-74
2022/10/17 00:32:10;;;;;;;11.50;6.15;;;;;;;;;;10300378;28;20023;-75
2022/10/17 00:37:10;;;;;;;12.65;7.47;;;;;;;;;;10304225;28;20106;-75
2022/10/17 00:42:11;;;;;;;13.20;5.45;;;;;;;;;;10302498;28;20038;-75
2022/10/17 00:47:17;;;;;;;10.20;6.22;;;;;;;;;;10300269;28;20015;-80
2022/10/17 00:52:20;;;;;;;14.32;6.75;;;;;;;;;;10311549;28;20113;-74
2022/10/17 00:57:20;;;;;;;10.43;6.55;;;;;;;;;;10312776;28;20080;-76
2022/10/17 01:02:21;;;;;;;10.90;5.95;;;;;;;;;;10305849;28;20019;-73
2022/10/17 01:07:21;;;;;;;14.13;6.03;;;;;;;;;;10308505;28;20081;-73
2022/10/17 01:12:22;;;;;;;11.48;6.50;;;;;;;;;;10308800;28;20121;-76
2022/10/17 01:17:22;;;;;;;11.73;5.30;;;;;;;;;;10305652;28;20030;-77
2022/10/17 01:22:25;;;;;;;12.52;7.57;;;;;;;;;;10308414;28;20085;-76
2022/10/17 01:27:44;;;;;;;10.10;5.75;;;;;;;;;;10310547;28;20404;-74
2022/10/17 01:32:44;;;;;;;;;;;;;;;;;;10309809;28;20038;-79
2022/10/17 01:37:51;;;;;;;8.93;6.38;;;;;;;;;;10306473;28;19910;-76
2022/10/17 01:43:10;;;;;;;12.83;7.07;;;;;;;;;;10306832;28;20077;-78
2022/10/17 01:48:15;;;;;;;8.88;4.95;;;;;;;;;;10307758;28;20286;-77
2022/10/17 01:53:18;;;;;;;12.23;7.28;;;;;;;;;;10308563;28;20061;-74
2022/10/17 01:58:18;;;;;;;12.52;6.53;;;;;;;;;;10308872;28;20034;-78
2022/10/17 02:03:19;;;;;;;11.95;6.53;;;;;;;;;;10305974;28;20027;-77
2022/10/17 02:08:27;;;;;;;8.90;6.13;;;;;;;;;;10308109;28;20510;-80
2022/10/17 02:13:51;;;;;;;11.88;7.30;;;;;;;;;;10313468;28;20457;-78
2022/10/17 02:19:00;;;;;;;13.02;6.95;;;;;;;;;;10272918;28;20030;-73
2022/10/17 02:24:00;;;;;;;;;;;;;;;;;;10305876;28;20054;-75
2022/10/17 02:29:17;;;;;;;10.82;6.53;;;;;;;;;;10305579;28;20024;-73
2022/10/17 02:34:24;;;;;;;16.58;7.63;;;;;;;;;;10309090;28;20018;-79
2022/10/17 02:39:26;;;;;;;11.60;6.50;;;;;;;;;;10297935;28;20069;-80
2022/10/17 02:44:27;;;;;;;15.93;7.82;;;;;;;;;;10305193;28;20477;-77
2022/10/17 02:49:30;;;;;;;10.82;7.38;;;;;;;;;;10304836;28;20523;-77
2022/10/17 02:54:37;;;;;;;12.93;7.82;;;;;;;;;;10303218;28;20054;-75
2022/10/17 02:59:40;;;;;;;11.43;6.63;;;;;;;;;;10302650;28;20030;-75
2022/10/17 03:04:44;;;;;;;12.27;7.53;;;;;;;;;;10291685;28;20084;-74
2022/10/17 03:09:44;;;;;;;15.43;7.40;;;;;;;;;;10293259;28;20425;-72
2022/10/17 03:14:45;;;;;;;16.98;8.05;;;;;;;;;;10301517;28;20050;-78
2022/10/17 03:19:45;;;;;;;11.68;7.05;;;;;;;;;;10303928;28;20026;-76
2022/10/17 03:24:46;;;;;;;13.55;7.55;;;;;;;;;;10305746;28;20022;-80
2022/10/17 03:29:46;;;;;;;14.40;8.07;;;;;;;;;;10303356;28;20023;-75
2022/10/17 03:34:46;;;;;;;12.48;7.65;;;;;;;;;;10304223;28;20023;-75
2022/10/17 03:39:47;;;;;;;12.52;7.18;;;;;;;;;;10303628;28;20466;-81
2022/10/17 03:44:47;;;;;;;13.57;8.60;;;;;;;;;;10296905;28;20023;-76
2022/10/17 03:49:47;;;;;;;14.18;7.63;;;;;;;;;;10305292;28;20054;-81
2022/10/17 03:54:48;;;;;;;12.23;8.37;;;;;;;;;;10302207;28;20125;-80
2022/10/17 03:59:49;;;;;;;19.40;8.00;;;;;;;;;;10312004;28;20025;-81
2022/10/17 04:04:49;;;;;;;15.20;8.65;;;;;;;;;;10308685;28;20018;-75
2022/10/17 04:09:49;;;;;;;12.23;8.52;;;;;;;;;;10307032;28;20050;-76
2022/10/17 04:14:49;;;;;;;14.60;8.20;;;;;;;;;;10301168;28;20026;-75
2022/10/17 04:19:50;;;;;;;21.95;11.55;;;;;;;;;;10305380;28;20084;-84
2022/10/17 04:24:50;;;;;;;15.80;9.07;;;;;;;;;;10301550;28;20029;-74
2022/10/17 04:29:50;;;;;;;22.17;11.65;;;;;;;;;;10311092;28;20042;-76
2022/10/17 04:34:50;;;;;;;22.00;11.15;;;;;;;;;;10307329;28;20121;-74
2022/10/17 04:39:51;;;;;;;24.25;10.32;;;;;;;;;;10310890;28;20041;-75
2022/10/17 04:44:51;;;;;;;19.90;10.13;;;;;;;;;;10308635;28;20525;-76
2022/10/17 04:49:51;;;;;;;15.27;10.15;;;;;;;;;;10306251;28;20354;-79
2022/10/17 04:54:51;;;;;;;12.27;8.17;;;;;;;;;;10305765;28;20110;-78
2022/10/17 04:59:52;;;;;;;25.55;10.13;;;;;;;;;;10304239;28;20110;-76
2022/10/17 05:04:52;;;;;;;19.17;8.43;;;;;;;;;;10303066;28;20080;-76
2022/10/17 05:09:52;;;;;;;15.07;8.70;;;;;;;;;;10302537;28;20469;-75
2022/10/17 05:14:53;;;;;;;19.02;9.35;;;;;;;;;;10302494;28;20485;-76
2022/10/17 05:19:53;;;;;;;14.35;8.68;;;;;;;;;;10306169;28;20041;-75
2022/10/17 05:24:54;;;;;;;22.53;8.77;;;;;;;;;;10305457;28;20027;-81
2022/10/17 05:29:54;;;;;;;15.20;9.23;;;;;;;;;;10310469;28;20026;-75
2022/10/17 05:34:54;;;;;;;15.05;8.65;;;;;;;;;;10305954;28;20034;-80
2022/10/17 05:39:54;;;;;;;22.33;8.68;;;;;;;;;;10303096;28;20540;-81
2022/10/17 05:44:55;;;;;;;16.33;9.38;;;;;;;;;;10304190;28;20506;-74
2022/10/17 05:49:55;;;;;;;13.43;7.78;;;;;;;;;;10311975;28;20065;-76
2022/10/17 05:54:55;;;;;;;13.38;7.72;;;;;;;;;;10304331;28;20027;-81
2022/10/17 05:59:55;;;;;;;14.35;7.40;;;;;;;;;;10306883;28;20062;-80
2022/10/17 06:04:56;;;;;;;16.30;7.45;;;;;;;;;;10312012;28;20022;-81
2022/10/17 06:09:57;;;;;;;17.77;7.53;;;;;;;;;;10302066;28;20054;-76
2022/10/17 06:14:58;;;;;;;13.73;6.75;;;;;;;;;;10306255;28;20026;-76
2022/10/17 06:19:58;;;;;;;18.38;6.57;;;;;;;;;;10303517;28;20030;-79
2022/10/17 06:24:58;;;;;;;12.90;7.18;;;;;;;;;;10303673;28;20334;-81
2022/10/17 06:29:58;;;;;;;13.70;6.85;;;;;;;;;;10304724;28;20023;-75
2022/10/17 06:34:59;;;;;;;14.93;6.82;;;;;;;;;;10304791;28;20088;-80
2022/10/17 06:39:59;;;;;;;16.35;8.32;;;;;;;;;;10304676;28;20118;-76
2022/10/17 06:44:59;;;;;;;16.75;9.20;;;;;;;;;;10304104;28;20050;-75
2022/10/17 06:49:59;;;;;;;21.45;10.00;;;;;;;;;;10302549;28;20019;-84
2022/10/17 06:54:59;;;;;;;27.45;11.75;;;;;;;;;;10303314;28;20030;-79
2022/10/17 07:00:00;;;;;;;18.70;10.80;;;;;;;;;;10302319;28;20559;-76
2022/10/17 07:05:00;;;;;;;26.13;12.93;;;;;;;;;;10294421;28;20126;-76
2022/10/17 07:10:02;;;;;;;24.10;12.95;;;;;;;;;;10300508;28;20050;-80
2022/10/17 07:15:03;;;;;;;26.23;12.38;;;;;;;;;;10302924;28;20053;-76
2022/10/17 07:20:03;;;;;;;35.67;12.60;;;;;;;;;;10301600;28;20446;-79
2022/10/17 07:25:04;;;;;;;22.73;11.93;;;;;;;;;;10290501;28;20018;-76
2022/10/17 07:30:04;;;;;;;26.88;13.20;;;;;;;;;;10301892;28;20273;-76
2022/10/17 07:35:05;;;;;;;29.77;12.25;;;;;;;;;;10301304;28;20088;-76
2022/10/17 07:40:06;;;;;;;24.10;11.37;;;;;;;;;;10302823;28;20022;-76
2022/10/17 07:45:06;;;;;;;20.50;12.90;;;;;;;;;;10303229;28;20015;-76
2022/10/17 07:50:07;;;;;;;24.58;10.93;;;;;;;;;;10303680;28;20022;-75
2022/10/17 07:55:08;;;;;;;21.92;13.07;;;;;;;;;;10304036;28;20022;-76
2022/10/17 08:00:08;;;;;;;25.55;13.20;;;;;;;;;;10303592;28;20010;-76
2022/10/17 08:05:08;;;;;;;28.65;12.10;;;;;;;;;;10311901;28;20109;-75
2022/10/17 08:10:10;;;;;;;34.17;13.15;;;;;;;;;;10309692;28;20135;-82
2022/10/17 08:15:11;;;;;;;28.70;12.80;;;;;;;;;;10308310;28;20511;-77
2022/10/17 08:20:11;;;;;;;40.05;12.77;;;;;;;;;;10307946;28;20029;-79
2022/10/17 08:25:11;;;;;;;34.65;12.52;;;;;;;;;;10296994;28;20018;-81
2022/10/17 08:30:12;;;;;;;29.67;12.60;;;;;;;;;;10309882;28;20034;-79
2022/10/17 08:35:13;;;;;;;21.43;10.73;;;;;;;;;;10307315;28;20540;-77
2022/10/17 08:40:17;;;;;;;18.05;9.05;;;;;;;;;;10309162;28;20057;-81
2022/10/17 08:45:37;;;;;;;27.52;11.57;;;;;;;;;;10309529;28;20124;-82
2022/10/17 08:50:37;;;;;;;20.33;10.23;;;;;;;;;;10305821;28;20031;-74
2022/10/17 08:55:39;;;;;;;19.08;10.32;;;;;;;;;;10309526;28;20031;-75
2022/10/17 09:00:40;;;;;;;23.67;9.32;;;;;;;;;;10309542;28;20089;-75
2022/10/17 09:05:40;;;;;;;17.70;7.47;;;;;;;;;;10306954;28;20022;-75
2022/10/17 09:10:53;;;;;;;28.58;9.55;;;;;;;;;;10306688;28;20147;-79
2022/10/17 09:15:56;;;;;;;21.98;9.40;;;;;;;;;;10307772;28;20114;-74
2022/10/17 09:21:17;;;;;;;20.42;8.52;;;;;;;;;;10306998;28;20042;-74
2022/10/17 09:26:18;;;;;;;24.02;8.00;;;;;;;;;;10307780;28;20026;-82
2022/10/17 09:31:39;;;;;;;15.27;6.33;;;;;;;;;;10303945;28;20022;-82
2022/10/17 09:36:41;;;;;;;13.98;5.28;;;;;;;;;;10305360;28;20033;-75
2022/10/17 09:41:43;;;;;;;14.60;6.30;;;;;;;;;;10304960;28;20014;-80
2022/10/17 09:47:08;;;;;;;9.73;4.90;;;;;;;;;;10307364;28;20394;-81
2022/10/17 09:52:12;;;;;;;16.65;4.80;;;;;;;;;;10292581;28;20081;-75
2022/10/17 09:57:13;;;;;;;6.03;3.40;;;;;;;;;;10307028;28;20045;-75
2022/10/17 10:02:18;;;;;;;5.47;3.20;;;;;;;;;;10306870;28;20022;-75
2022/10/17 10:07:19;;;;;;;6.70;2.85;;;;;;;;;;10296614;28;20127;-80
2022/10/17 10:12:21;;;;;;;7.78;3.13;;;;;;;;;;10305847;28;20026;-80
2022/10/17 10:17:34;;;;;;;9.77;2.70;;;;;;;;;;10307816;28;20741;-81
2022/10/17 10:22:34;;;;;;;5.00;2.33;;;;;;;;;;10304143;28;20066;-75
2022/10/17 10:27:34;;;;;;;5.13;2.47;;;;;;;;;;10303366;28;20011;-83
2022/10/17 10:32:36;;;;;;;4.17;1.77;;;;;;;;;;10303177;28;20022;-80
2022/10/17 10:37:37;;;;;;;3.22;1.92;;;;;;;;;;10303531;28;20026;-75
2022/10/17 10:42:39;;;;;;;4.88;1.65;;;;;;;;;;10303621;28;20505;-76
2022/10/17 10:47:48;;;;;;;6.22;1.65;;;;;;;;;;10302702;28;20022;-78
2022/10/17 10:52:59;;;;;;;4.07;1.48;;;;;;;;;;10304000;28;20034;-75
2022/10/17 10:58:06;;;;;;;3.05;1.80;;;;;;;;;;10303374;28;20105;-77
2022/10/17 11:03:20;;;;;;;4.97;2.17;;;;;;;;;;10305660;28;20465;-83
2022/10/17 11:08:24;;;;;;;1.88;1.27;;;;;;;;;;10302887;28;20078;-80
2022/10/17 11:13:39;;;;;;;3.50;1.50;;;;;;;;;;10299966;28;20026;-74
2022/10/17 11:18:43;;;;;;;2.95;1.67;;;;;;;;;;10301012;28;20077;-76
2022/10/17 11:23:43;;;;;;;4.85;2.10;;;;;;;;;;10300858;28;20068;-81
2022/10/17 11:28:43;;;;;;;4.68;2.17;;;;;;;;;;10302784;28;20508;-76
2022/10/17 11:33:49;;;;;;;6.05;2.22;;;;;;;;;;10304491;28;20029;-75
2022/10/17 11:38:54;;;;;;;5.57;3.22;;;;;;;;;;10299301;28;20022;-81
2022/10/17 11:43:59;;;;;;;11.68;2.92;;;;;;;;;;10300412;28;20090;-77
2022/10/17 11:49:08;;;;;;;8.93;3.13;;;;;;;;;;10303554;28;20026;-75
2022/10/17 11:54:17;;;;;;;5.55;2.60;;;;;;;;;;10300995;28;20051;-76
2022/10/17 11:59:17;;;;;;;4.38;2.20;;;;;;;;;;10301791;28;20524;-78
2022/10/17 12:04:33;;;;;;;4.80;2.25;;;;;;;;;;10303200;28;20101;-80
2022/10/17 12:09:33;;;;;;;6.88;3.85;;;;;;;;;;10291115;28;20093;-81
2022/10/17 12:14:39;;;;;;;7.25;3.00;;;;;;;;;;10304061;28;20113;-79
2022/10/17 12:19:40;;;;;;;5.50;2.80;;;;;;;;;;10303718;28;20370;-75
2022/10/17 12:24:42;;;;;;;4.60;2.40;;;;;;;;;;10323124;28;20019;-74
2022/10/17 12:29:42;;;;;;;6.05;2.85;;;;;;;;;;10315766;28;20050;-77
2022/10/17 12:34:52;;;;;;;4.45;2.80;;;;;;;;;;10312835;28;20114;-76
2022/10/17 12:39:53;;;;;;;8.38;2.90;;;;;;;;;;10310896;28;20379;-76
2022/10/17 12:44:53;;;;;;;5.20;3.55;;;;;;;;;;10316364;28;20030;-75
2022/10/17 12:49:53;;;;;;;6.57;3.13;;;;;;;;;;10316510;28;20054;-76
2022/10/17 12:55:20;;;;;;;6.40;2.78;;;;;;;;;;10324828;28;20022;-81
2022/10/17 13:00:30;;;;;;;5.18;2.30;;;;;;;;;;10333198;28;20037;-81
2022/10/17 13:05:32;;;;;;;2.63;2.08;;;;;;;;;;10320861;28;20424;-76
2022/10/17 13:10:34;;;;;;;28.52;6.82;;;;;;;;;;10323912;28;20130;-77
2022/10/17 13:15:35;;;;;;;3.10;2.35;;;;;;;;;;10331041;28;20049;-83
2022/10/17 13:20:35;;;;;;;6.33;2.00;;;;;;;;;;10316555;28;20026;-76
2022/10/17 13:25:36;;;;;;;5.93;2.15;;;;;;;;;;10321839;28;20504;-73
2022/10/17 13:30:36;;;;;;;21.38;3.15;;;;;;;;;;10315159;28;20053;-84
2022/10/17 13:35:37;;;;;;;3.60;2.03;;;;;;;;;;10325494;28;20094;-76
2022/10/17 13:40:41;;;;;;;5.13;1.88;;;;;;;;;;10322460;28;20022;-81
2022/10/17 13:45:45;;;;;;;6.15;2.58;;;;;;;;;;10319443;28;20029;-76
2022/10/17 13:50:47;;;;;;;3.70;2.50;;;;;;;;;;10306456;28;20025;-77
2022/10/17 13:55:50;;;;;;;1.80;1.33;;;;;;;;;;10318304;28;20172;-75
2022/10/17 14:00:51;;;;;;;4.40;1.90;;;;;;;;;;10316838;28;20117;-79
2022/10/17 14:06:10;;;;;;;6.72;1.90;;;;;;;;;;10320690;28;20081;-84
2022/10/17 14:11:16;;;;;;;8.95;3.67;;;;;;;;;;10319895;28;20047;-80
2022/10/17 14:16:17;;;;;;;5.53;2.40;;;;;;;;;;10320880;28;20030;-76
2022/10/17 14:21:29;;;;;;;4.43;2.90;;;;;;;;;;10318519;28;20398;-76
2022/10/17 14:26:35;;;;;;;9.73;3.63;;;;;;;;;;10302808;28;20045;-76
2022/10/17 14:31:36;;;;;;;5.97;2.78;;;;;;;;;;10304254;28;20022;-76
2022/10/17 14:36:37;;;;;;;7.18;2.88;;;;;;;;;;10303727;28;20031;-75
2022/10/17 14:41:37;;;;;;;7.32;3.67;;;;;;;;;;10303761;28;20026;-76
2022/10/17 14:46:43;;;;;;;6.67;3.77;;;;;;;;;;10307207;28;20015;-82
2022/10/17 14:52:02;;;;;;;12.55;3.45;;;;;;;;;;10304782;28;20018;-75
2022/10/17 14:57:14;;;;;;;7.68;3.70;;;;;;;;;;10302703;28;20026;-81
2022/10/17 15:02:15;;;;;;;6.20;3.70;;;;;;;;;;10304973;28;20023;-78
2022/10/17 15:07:15;;;;;;;8.63;3.88;;;;;;;;;;10303258;28;20018;-74
2022/10/17 15:12:17;;;;;;;9.52;3.83;;;;;;;;;;10303088;28;20486;-79
2022/10/17 15:17:28;;;;;;;13.35;3.30;;;;;;;;;;10302568;28;20117;-75
2022/10/17 15:22:30;;;;;;;9.18;3.45;;;;;;;;;;10303505;28;20029;-76
2022/10/17 15:27:31;;;;;;;11.02;3.92;;;;;;;;;;10300230;28;20493;-81
2022/10/17 15:32:31;;;;;;;8.73;3.53;;;;;;;;;;10303460;28;20027;-75
2022/10/17 15:37:32;;;;;;;10.63;3.90;;;;;;;;;;10301383;28;20409;-83
2022/10/17 15:42:32;;;;;;;7.63;4.07;;;;;;;;;;10301538;28;20019;-77
2022/10/17 15:47:33;;;;;;;5.68;4.03;;;;;;;;;;10300642;28;20041;-79
2022/10/17 15:52:33;;;;;;;12.77;6.85;;;;;;;;;;10301827;28;20053;-80
2022/10/17 15:57:35;;;;;;;13.02;5.28;;;;;;;;;;10320512;28;20122;-75
2022/10/17 16:02:36;;;;;;;13.20;5.10;;;;;;;;;;10299708;28;20507;-80
2022/10/17 16:07:36;;;;;;;15.05;6.00;;;;;;;;;;10314387;28;20129;-83
2022/10/17 16:12:40;;;;;;;15.95;6.20;;;;;;;;;;10315207;28;20022;-76
2022/10/17 16:17:40;;;;;;;22.23;6.82;;;;;;;;;;10314917;28;20021;-76
2022/10/17 16:22:42;;;;;;;21.63;7.37;;;;;;;;;;10316915;28;20398;-76
2022/10/17 16:27:42;;;;;;;18.60;7.10;;;;;;;;;;10322837;28;20486;-77
2022/10/17 16:32:42;;;;;;;12.95;7.22;;;;;;;;;;10326094;28;20033;-80
2022/10/17 16:37:43;;;;;;;20.40;9.07;;;;;;;;;;10320881;28;20031;-83
2022/10/17 16:42:43;;;;;;;27.08;9.57;;;;;;;;;;10321743;28;20118;-76
2022/10/17 16:47:43;;;;;;;14.25;7.78;;;;;;;;;;10322570;28;20164;-76
2022/10/17 16:52:44;;;;;;;10.82;6.25;;;;;;;;;;10319979;28;20026;-81
2022/10/17 16:57:44;;;;;;;12.33;6.27;;;;;;;;;;10317284;28;20026;-78
2022/10/17 17:02:47;;;;;;;21.30;7.30;;;;;;;;;;10314977;28;20011;-76
2022/10/17 17:07:48;;;;;;;13.80;6.60;;;;;;;;;;10322602;28;20053;-80
2022/10/17 17:12:48;;;;;;;14.02;7.13;;;;;;;;;;10321970;28;20015;-78
2022/10/17 17:17:48;;;;;;;12.18;6.28;;;;;;;;;;10320393;28;20114;-77
2022/10/17 17:22:49;;;;;;;13.02;7.47;;;;;;;;;;10320074;28;20026;-81
2022/10/17 17:27:49;;;;;;;18.92;8.07;;;;;;;;;;10321561;28;20469;-77
2022/10/17 17:32:50;;;;;;;14.20;7.47;;;;;;;;;;10324324;28;20022;-73
2022/10/17 17:37:51;;;;;;;21.90;8.53;;;;;;;;;;10305859;28;20027;-81
2022/10/17 17:42:52;;;;;;;15.77;7.53;;;;;;;;;;10304848;28;20026;-76
2022/10/17 17:47:54;;;;;;;18.00;8.05;;;;;;;;;;10315414;28;20096;-79
2022/10/17 17:52:54;;;;;;;13.85;7.20;;;;;;;;;;10312025;28;20026;-79
2022/10/17 17:57:55;;;;;;;14.03;6.90;;;;;;;;;;10296095;28;20501;-79
2022/10/17 18:02:56;;;;;;;14.45;7.93;;;;;;;;;;10314468;28;20033;-79
2022/10/17 18:07:56;;;;;;;14.02;6.55;;;;;;;;;;10320044;28;20054;-79
2022/10/17 18:12:56;;;;;;;11.98;7.07;;;;;;;;;;10317738;28;20113;-80
2022/10/17 18:17:57;;;;;;;11.77;5.13;;;;;;;;;;10313886;28;20420;-78
2022/10/17 18:22:57;;;;;;;10.13;5.03;;;;;;;;;;10320991;28;20444;-78
2022/10/17 18:27:57;;;;;;;8.88;4.70;;;;;;;;;;10308112;28;20766;-79
2022/10/17 18:32:57;;;;;;;10.30;4.70;;;;;;;;;;10291343;28;20082;-75
2022/10/17 18:37:58;;;;;;;8.52;4.78;;;;;;;;;;10315667;28;20033;-81
2022/10/17 18:42:58;;;;;;;10.43;4.17;;;;;;;;;;10314991;28;20045;-79
2022/10/17 18:47:58;;;;;;;8.25;4.72;;;;;;;;;;10311439;28;20030;-76
2022/10/17 18:52:58;;;;;;;7.75;4.03;;;;;;;;;;10312526;28;20518;-79
2022/10/17 18:57:59;;;;;;;14.35;4.72;;;;;;;;;;10310804;28;20045;-78
2022/10/17 19:02:59;;;;;;;7.63;3.45;;;;;;;;;;10316787;28;20025;-78
2022/10/17 19:08:00;;;;;;;6.50;3.70;;;;;;;;;;10314669;28;20185;-76
2022/10/17 19:13:00;;;;;;;9.40;4.20;;;;;;;;;;10306400;28;20026;-79
2022/10/17 19:18:00;;;;;;;11.93;3.90;;;;;;;;;;10311501;28;20037;-78
2022/10/17 19:23:00;;;;;;;9.23;4.88;;;;;;;;;;10304073;28;20037;-78
2022/10/17 19:28:01;;;;;;;10.63;3.88;;;;;;;;;;10313559;28;20129;-77
2022/10/17 19:33:01;;;;;;;9.30;4.03;;;;;;;;;;10312338;28;20394;-81
2022/10/17 19:38:01;;;;;;;7.00;3.83;;;;;;;;;;10315890;28;20589;-81
2022/10/17 19:43:01;;;;;;;8.05;4.13;;;;;;;;;;10311064;28;20154;-81
2022/10/17 19:48:02;;;;;;;18.45;4.70;;;;;;;;;;10315568;28;20385;-77
2022/10/17 19:53:02;;;;;;;10.30;4.15;;;;;;;;;;10313894;28;20100;-81
2022/10/17 19:58:02;;;;;;;9.93;4.05;;;;;;;;;;10312410;28;20096;-79
2022/10/17 20:03:02;;;;;;;7.50;3.92;;;;;;;;;;10313518;28;20516;-76
2022/10/17 20:08:03;;;;;;;6.88;4.00;;;;;;;;;;10310035;28;20046;-76
2022/10/17 20:13:03;;;;;;;6.95;4.20;;;;;;;;;;10315184;28;20031;-79
2022/10/17 20:18:04;;;;;;;6.55;3.72;;;;;;;;;;10310484;28;20041;-75
2022/10/17 20:23:04;;;;;;;6.22;3.40;;;;;;;;;;10315997;28;20053;-75
2022/10/17 20:28:05;;;;;;;6.93;3.58;;;;;;;;;;10310077;28;20469;-75
2022/10/17 20:33:05;;;;;;;8.18;4.05;;;;;;;;;;10310967;28;20054;-74
2022/10/17 20:38:06;;;;;;;7.85;3.90;;;;;;;;;;10314783;28;20208;-75
2022/10/17 20:43:06;;;;;;;5.90;3.70;;;;;;;;;;10310499;28;20029;-78
2022/10/17 20:48:10;;;;;;;7.43;3.47;;;;;;;;;;10309983;28;20032;-76
2022/10/17 20:53:11;;;;;;;4.25;3.30;;;;;;;;;;10307863;28;20054;-75
2022/10/17 20:58:12;;;;;;;10.43;3.33;;;;;;;;;;10307801;28;20563;-75
2022/10/17 21:03:12;;;;;;;5.88;3.83;;;;;;;;;;10310855;28;20026;-77
2022/10/17 21:08:12;;;;;;;6.90;4.07;;;;;;;;;;10306954;28;20120;-82
2022/10/17 21:13:13;;;;;;;11.05;3.53;;;;;;;;;;10307825;28;20050;-72
2022/10/17 21:18:13;;;;;;;6.40;3.28;;;;;;;;;;10308069;28;20042;-75
2022/10/17 21:23:13;;;;;;;9.07;3.38;;;;;;;;;;10316869;28;20038;-75
2022/10/17 21:28:14;;;;;;;6.82;3.25;;;;;;;;;;10315966;28;20030;-76
2022/10/17 21:33:15;;;;;;;6.40;2.90;;;;;;;;;;10316381;28;20035;-81
2022/10/17 21:38:16;;;;;;;4.22;2.90;;;;;;;;;;10286618;28;20677;-78
2022/10/17 21:43:17;;;;;;;6.38;3.00;;;;;;;;;;10313422;28;20024;-74
2022/10/17 21:48:17;;;;;;;9.07;2.78;;;;;;;;;;10309998;28;20592;-78
2022/10/17 21:53:17;;;;;;;5.25;3.28;;;;;;;;;;10308203;28;20031;-78
2022/10/17 21:58:18;;;;;;;5.25;3.55;;;;;;;;;;10299895;28;20425;-81
2022/10/17 22:03:19;;;;;;;6.40;2.97;;;;;;;;;;10305517;28;20025;-77
2022/10/17 22:08:19;;;;;;;4.70;3.00;;;;;;;;;;10308101;28;20073;-75
2022/10/17 22:13:19;;;;;;;6.40;4.03;;;;;;;;;;10308795;28;20564;-76
2022/10/17 22:18:19;;;;;;;8.98;4.07;;;;;;;;;;10306458;28;20031;-74
2022/10/17 22:23:20;;;;;;;6.93;3.30;;;;;;;;;;10307703;28;20499;-72
2022/10/17 22:28:20;;;;;;;5.85;3.20;;;;;;;;;;10300106;28;20041;-77
2022/10/17 22:33:20;;;;;;;4.30;3.10;;;;;;;;;;10303109;28;20025;-74
2022/10/17 22:38:20;;;;;;;4.65;2.92;;;;;;;;;;10309795;28;20038;-75
2022/10/17 22:43:21;;;;;;;4.88;3.22;;;;;;;;;;10302792;28;20018;-83
2022/10/17 22:48:21;;;;;;;6.07;3.92;;;;;;;;;;10301972;28;20106;-75
2022/10/17 22:53:23;;;;;;;6.85;4.45;;;;;;;;;;10305763;28;20485;-77
2022/10/17 22:58:23;;;;;;;10.52;4.10;;;;;;;;;;10303957;28;20023;-76
2022/10/17 23:03:25;;;;;;;5.70;3.72;;;;;;;;;;10301833;28;20591;-76
2022/10/17 23:08:26;;;;;;;4.43;3.55;;;;;;;;;;10304433;28;20483;-77
2022/10/17 23:13:26;;;;;;;6.65;3.88;;;;;;;;;;10310827;28;20046;-75
2022/10/17 23:18:26;;;;;;;9.32;3.92;;;;;;;;;;10304144;28;20026;-75
2022/10/17 23:23:26;;;;;;;8.02;4.60;;;;;;;;;;10304198;28;20022;-76
2022/10/17 23:28:27;;;;;;;7.50;3.83;;;;;;;;;;10300631;28;20093;-74
2022/10/17 23:33:27;;;;;;;10.45;4.40;;;;;;;;;;10298462;28;20023;-76
2022/10/17 23:38:27;;;;;;;10.38;3.88;;;;;;;;;;10303734;28;20504;-78
2022/10/17 23:43:28;;;;;;;7.28;4.10;;;;;;;;;;10300755;28;20058;-82
2022/10/17 23:48:29;;;;;;;7.65;4.28;;;;;;;;;;10303356;28;20019;-83
2022/10/17 23:53:29;;;;;;;8.32;5.80;;;;;;;;;;10303581;28;20026;-76
2022/10/17 23:58:29;;;;;;;6.97;4.35;;;;;;;;;;10301592;28;20046;-78
